Rocha, Argentina
Current Conditions -  °F | °C
As of 9:00 PM on Saturday 25 Oct 2014 (Local Time) from SAZM Reporting Station
Clear Clear  
Wind Chill: 64°   Ceiling: Unl
Heat Index: 64°   Visibility: 4mi
Dew Point: 63°   Wind: 8mph
Humidity: 94%   Direction: 50°NE
Pressure: 29.85"   Gusts: NA
Location:  37.18°S, 60.97°W
Report Text: SAZM 260000Z 05007KT 7000 NSC 18/17 Q1011
Loading
Personal Weather Stations






























Interactive Weather Map New forecast layout! Learn more

10-Day Weather Forecast

Advertisements
Track Severe Weather on mobile